sensor_id;sensor_type;location;lat;lon;timestamp;temperature;humidity
59881;DHT22;45751;51.380;10.326;2023-07-13T00:00:12;18.10;66.40
59881;DHT22;45751;51.380;10.326;2023-07-13T00:02:42;18.00;67.10
59881;DHT22;45751;51.380;10.326;2023-07-13T00:05:09;17.90;67.80
59881;DHT22;45751;51.380;10.326;2023-07-13T00:07:36;17.90;67.80
59881;DHT22;45751;51.380;10.326;2023-07-13T00:10:04;17.90;67.50
59881;DHT22;45751;51.380;10.326;2023-07-13T00:12:34;17.90;67.30
59881;DHT22;45751;51.380;10.326;2023-07-13T00:15:04;17.90;67.00
59881;DHT22;45751;51.380;10.326;2023-07-13T00:17:32;17.90;66.60
59881;DHT22;45751;51.380;10.326;2023-07-13T00:19:58;17.90;67.20
59881;DHT22;45751;51.380;10.326;2023-07-13T00:22:26;18.00;66.80
59881;DHT22;45751;51.380;10.326;2023-07-13T00:24:53;18.00;66.80
59881;DHT22;45751;51.380;10.326;2023-07-13T00:27:23;18.00;67.10
59881;DHT22;45751;51.380;10.326;2023-07-13T00:29:51;18.00;66.90
59881;DHT22;45751;51.380;10.326;2023-07-13T00:32:19;17.90;66.80
59881;DHT22;45751;51.380;10.326;2023-07-13T00:34:46;17.90;67.00
59881;DHT22;45751;51.380;10.326;2023-07-13T00:37:13;17.90;67.20
59881;DHT22;45751;51.380;10.326;2023-07-13T00:39:40;17.90;67.20
59881;DHT22;45751;51.380;10.326;2023-07-13T00:42:07;17.80;67.30
59881;DHT22;45751;51.380;10.326;2023-07-13T00:44:34;17.80;67.60
59881;DHT22;45751;51.380;10.326;2023-07-13T00:47:01;17.80;67.70
59881;DHT22;45751;51.380;10.326;2023-07-13T00:49:30;17.80;67.90
59881;DHT22;45751;51.380;10.326;2023-07-13T00:52:09;17.80;67.80
59881;DHT22;45751;51.380;10.326;2023-07-13T00:54:40;17.70;68.00
59881;DHT22;45751;51.380;10.326;2023-07-13T00:57:10;17.70;68.20
59881;DHT22;45751;51.380;10.326;2023-07-13T00:59:42;17.60;68.30
59881;DHT22;45751;51.380;10.326;2023-07-13T01:02:09;17.70;68.50
59881;DHT22;45751;51.380;10.326;2023-07-13T01:04:37;17.60;68.60
59881;DHT22;45751;51.380;10.326;2023-07-13T01:07:06;17.70;68.80
59881;DHT22;45751;51.380;10.326;2023-07-13T01:09:33;17.70;68.70
59881;DHT22;45751;51.380;10.326;2023-07-13T01:12:00;17.60;68.80
59881;DHT22;45751;51.380;10.326;2023-07-13T01:14:29;17.60;69.30
59881;DHT22;45751;51.380;10.326;2023-07-13T01:16:56;17.50;70.40
59881;DHT22;45751;51.380;10.326;2023-07-13T01:19:37;17.50;71.10
59881;DHT22;45751;51.380;10.326;2023-07-13T01:22:14;17.40;71.40
59881;DHT22;45751;51.380;10.326;2023-07-13T01:24:43;17.40;72.10
59881;DHT22;45751;51.380;10.326;2023-07-13T01:27:13;17.20;72.60
59881;DHT22;45751;51.380;10.326;2023-07-13T01:29:42;17.30;73.10
59881;DHT22;45751;51.380;10.326;2023-07-13T01:32:11;17.30;73.70
59881;DHT22;45751;51.380;10.326;2023-07-13T01:34:39;17.20;74.30
59881;DHT22;45751;51.380;10.326;2023-07-13T01:37:10;17.20;75.00
59881;DHT22;45751;51.380;10.326;2023-07-13T01:39:37;17.10;75.30
59881;DHT22;45751;51.380;10.326;2023-07-13T01:42:04;17.10;76.00
59881;DHT22;45751;51.380;10.326;2023-07-13T01:44:31;17.00;76.80
59881;DHT22;45751;51.380;10.326;2023-07-13T01:46:58;17.00;77.30
59881;DHT22;45751;51.380;10.326;2023-07-13T01:49:25;17.00;77.60
59881;DHT22;45751;51.380;10.326;2023-07-13T01:51:52;16.90;77.80
59881;DHT22;45751;51.380;10.326;2023-07-13T01:54:19;16.90;77.60
59881;DHT22;45751;51.380;10.326;2023-07-13T01:56:46;16.80;77.80
59881;DHT22;45751;51.380;10.326;2023-07-13T01:59:13;16.80;78.70
59881;DHT22;45751;51.380;10.326;2023-07-13T02:01:40;16.70;79.00
59881;DHT22;45751;51.380;10.326;2023-07-13T02:04:07;16.70;79.30
59881;DHT22;45751;51.380;10.326;2023-07-13T02:06:34;16.60;79.40
59881;DHT22;45751;51.380;10.326;2023-07-13T02:09:00;16.60;79.80
59881;DHT22;45751;51.380;10.326;2023-07-13T02:11:27;16.60;80.20
59881;DHT22;45751;51.380;10.326;2023-07-13T02:14:03;16.50;80.60
59881;DHT22;45751;51.380;10.326;2023-07-13T02:16:30;16.50;81.00
59881;DHT22;45751;51.380;10.326;2023-07-13T02:18:58;16.50;81.50
59881;DHT22;45751;51.380;10.326;2023-07-13T02:21:26;16.40;81.80
59881;DHT22;45751;51.380;10.326;2023-07-13T02:23:52;16.40;82.40
59881;DHT22;45751;51.380;10.326;2023-07-13T02:26:20;16.30;82.70
59881;DHT22;45751;51.380;10.326;2023-07-13T02:28:47;16.30;83.40
59881;DHT22;45751;51.380;10.326;2023-07-13T02:31:15;16.30;83.60
59881;DHT22;45751;51.380;10.326;2023-07-13T02:33:43;16.20;83.60
59881;DHT22;45751;51.380;10.326;2023-07-13T02:36:11;16.20;85.20
59881;DHT22;45751;51.380;10.326;2023-07-13T02:38:39;16.10;84.60
59881;DHT22;45751;51.380;10.326;2023-07-13T02:41:07;16.10;84.80
59881;DHT22;45751;51.380;10.326;2023-07-13T02:43:36;16.00;86.30
59881;DHT22;45751;51.380;10.326;2023-07-13T02:46:03;16.00;85.70
59881;DHT22;45751;51.380;10.326;2023-07-13T02:48:36;15.90;86.40
59881;DHT22;45751;51.380;10.326;2023-07-13T02:51:04;15.90;87.30
59881;DHT22;45751;51.380;10.326;2023-07-13T02:53:31;15.80;87.90
59881;DHT22;45751;51.380;10.326;2023-07-13T02:55:58;15.80;88.60
59881;DHT22;45751;51.380;10.326;2023-07-13T02:58:26;15.80;88.70
59881;DHT22;45751;51.380;10.326;2023-07-13T03:00:53;15.70;88.60
59881;DHT22;45751;51.380;10.326;2023-07-13T03:03:20;15.70;88.70
59881;DHT22;45751;51.380;10.326;2023-07-13T03:05:47;15.70;89.60
59881;DHT22;45751;51.380;10.326;2023-07-13T03:08:19;15.70;89.50
59881;DHT22;45751;51.380;10.326;2023-07-13T03:10:48;15.80;89.10
59881;DHT22;45751;51.380;10.326;2023-07-13T03:13:15;15.70;89.60
59881;DHT22;45751;51.380;10.326;2023-07-13T03:15:42;15.70;89.70
59881;DHT22;45751;51.380;10.326;2023-07-13T03:18:09;15.70;90.00
59881;DHT22;45751;51.380;10.326;2023-07-13T03:20:37;15.70;89.60
59881;DHT22;45751;51.380;10.326;2023-07-13T03:23:04;15.60;89.80
59881;DHT22;45751;51.380;10.326;2023-07-13T03:25:31;15.60;90.10
59881;DHT22;45751;51.380;10.326;2023-07-13T03:28:01;15.50;90.20
59881;DHT22;45751;51.380;10.326;2023-07-13T03:30:28;15.50;90.30
59881;DHT22;45751;51.380;10.326;2023-07-13T03:32:54;15.50;90.40
59881;DHT22;45751;51.380;10.326;2023-07-13T03:35:22;15.50;90.70
59881;DHT22;45751;51.380;10.326;2023-07-13T03:37:49;15.50;90.90
59881;DHT22;45751;51.380;10.326;2023-07-13T03:40:20;15.50;90.90
59881;DHT22;45751;51.380;10.326;2023-07-13T03:42:47;15.50;91.00
59881;DHT22;45751;51.380;10.326;2023-07-13T03:45:17;15.50;91.00
59881;DHT22;45751;51.380;10.326;2023-07-13T03:47:44;15.60;91.40
59881;DHT22;45751;51.380;10.326;2023-07-13T03:50:11;15.60;91.20
59881;DHT22;45751;51.380;10.326;2023-07-13T03:52:38;15.60;91.30
59881;DHT22;45751;51.380;10.326;2023-07-13T03:55:05;15.60;91.20
59881;DHT22;45751;51.380;10.326;2023-07-13T03:57:33;15.60;91.20
59881;DHT22;45751;51.380;10.326;2023-07-13T04:00:05;15.60;91.40
59881;DHT22;45751;51.380;10.326;2023-07-13T04:02:41;15.60;91.50
59881;DHT22;45751;51.380;10.326;2023-07-13T04:05:08;15.60;91.50
59881;DHT22;45751;51.380;10.326;2023-07-13T04:07:35;15.70;91.60
59881;DHT22;45751;51.380;10.326;2023-07-13T04:10:02;15.70;91.50
59881;DHT22;45751;51.380;10.326;2023-07-13T04:12:30;15.80;91.40
59881;DHT22;45751;51.380;10.326;2023-07-13T04:14:57;15.80;91.20
59881;DHT22;45751;51.380;10.326;2023-07-13T04:17:24;15.90;91.20
59881;DHT22;45751;51.380;10.326;2023-07-13T04:19:50;15.90;91.50
59881;DHT22;45751;51.380;10.326;2023-07-13T04:22:17;15.90;91.50
59881;DHT22;45751;51.380;10.326;2023-07-13T04:24:44;16.00;91.20
59881;DHT22;45751;51.380;10.326;2023-07-13T04:27:11;16.00;91.30
59881;DHT22;45751;51.380;10.326;2023-07-13T04:29:38;16.10;91.50
59881;DHT22;45751;51.380;10.326;2023-07-13T04:32:05;16.10;91.20
59881;DHT22;45751;51.380;10.326;2023-07-13T04:34:32;16.10;91.20
59881;DHT22;45751;51.380;10.326;2023-07-13T04:36:59;16.20;91.00
59881;DHT22;45751;51.380;10.326;2023-07-13T04:39:26;16.20;90.90
59881;DHT22;45751;51.380;10.326;2023-07-13T04:41:53;16.20;90.80
59881;DHT22;45751;51.380;10.326;2023-07-13T04:44:21;16.30;90.60
59881;DHT22;45751;51.380;10.326;2023-07-13T04:46:48;16.30;90.20
59881;DHT22;45751;51.380;10.326;2023-07-13T04:49:15;16.30;90.80
59881;DHT22;45751;51.380;10.326;2023-07-13T04:51:42;16.30;90.50
59881;DHT22;45751;51.380;10.326;2023-07-13T04:54:09;16.40;90.10
59881;DHT22;45751;51.380;10.326;2023-07-13T04:56:36;16.40;90.20
59881;DHT22;45751;51.380;10.326;2023-07-13T04:59:03;16.40;90.20
59881;DHT22;45751;51.380;10.326;2023-07-13T05:01:30;16.50;89.30
59881;DHT22;45751;51.380;10.326;2023-07-13T05:03:57;16.60;87.70
59881;DHT22;45751;51.380;10.326;2023-07-13T05:06:26;16.60;86.90
59881;DHT22;45751;51.380;10.326;2023-07-13T05:08:53;16.60;86.80
59881;DHT22;45751;51.380;10.326;2023-07-13T05:11:20;16.70;86.40
59881;DHT22;45751;51.380;10.326;2023-07-13T05:13:47;16.70;85.70
59881;DHT22;45751;51.380;10.326;2023-07-13T05:16:14;16.60;85.80
59881;DHT22;45751;51.380;10.326;2023-07-13T05:18:42;16.70;85.50
59881;DHT22;45751;51.380;10.326;2023-07-13T05:21:10;16.70;85.70
59881;DHT22;45751;51.380;10.326;2023-07-13T05:23:39;16.60;85.60
59881;DHT22;45751;51.380;10.326;2023-07-13T05:26:08;16.60;85.60
59881;DHT22;45751;51.380;10.326;2023-07-13T05:28:36;16.70;85.70
59881;DHT22;45751;51.380;10.326;2023-07-13T05:31:03;16.70;86.20
59881;DHT22;45751;51.380;10.326;2023-07-13T05:33:30;16.70;86.20
59881;DHT22;45751;51.380;10.326;2023-07-13T05:35:57;16.70;86.40
59881;DHT22;45751;51.380;10.326;2023-07-13T05:38:24;16.80;86.80
59881;DHT22;45751;51.380;10.326;2023-07-13T05:40:52;16.80;86.80
59881;DHT22;45751;51.380;10.326;2023-07-13T05:43:19;16.80;87.00
59881;DHT22;45751;51.380;10.326;2023-07-13T05:45:46;16.80;87.10
59881;DHT22;45751;51.380;10.326;2023-07-13T05:48:13;16.80;87.20
59881;DHT22;45751;51.380;10.326;2023-07-13T05:50:40;16.80;87.20
59881;DHT22;45751;51.380;10.326;2023-07-13T05:53:07;16.80;88.40
59881;DHT22;45751;51.380;10.326;2023-07-13T05:55:34;16.80;89.20
59881;DHT22;45751;51.380;10.326;2023-07-13T05:58:01;16.80;88.90
59881;DHT22;45751;51.380;10.326;2023-07-13T06:00:28;16.80;89.70
59881;DHT22;45751;51.380;10.326;2023-07-13T06:02:56;16.80;89.50
59881;DHT22;45751;51.380;10.326;2023-07-13T06:05:25;16.90;89.60
59881;DHT22;45751;51.380;10.326;2023-07-13T06:07:52;16.90;88.20
59881;DHT22;45751;51.380;10.326;2023-07-13T06:10:19;16.90;87.80
59881;DHT22;45751;51.380;10.326;2023-07-13T06:12:46;16.90;86.30
59881;DHT22;45751;51.380;10.326;2023-07-13T06:15:13;16.90;85.20
59881;DHT22;45751;51.380;10.326;2023-07-13T06:17:41;17.00;81.90
59881;DHT22;45751;51.380;10.326;2023-07-13T06:20:08;17.00;80.00
59881;DHT22;45751;51.380;10.326;2023-07-13T06:22:36;17.00;78.70
59881;DHT22;45751;51.380;10.326;2023-07-13T06:25:03;17.00;75.20
59881;DHT22;45751;51.380;10.326;2023-07-13T06:27:30;16.90;75.20
59881;DHT22;45751;51.380;10.326;2023-07-13T06:29:57;16.90;74.90
59881;DHT22;45751;51.380;10.326;2023-07-13T06:32:24;17.00;74.00
59881;DHT22;45751;51.380;10.326;2023-07-13T06:34:51;16.90;72.90
59881;DHT22;45751;51.380;10.326;2023-07-13T06:37:19;16.90;73.50
59881;DHT22;45751;51.380;10.326;2023-07-13T06:39:46;16.90;74.40
59881;DHT22;45751;51.380;10.326;2023-07-13T06:42:13;16.90;73.10
59881;DHT22;45751;51.380;10.326;2023-07-13T06:44:40;16.90;73.20
59881;DHT22;45751;51.380;10.326;2023-07-13T06:47:07;16.90;73.80
59881;DHT22;45751;51.380;10.326;2023-07-13T06:49:34;16.90;73.70
59881;DHT22;45751;51.380;10.326;2023-07-13T06:52:01;16.90;76.10
59881;DHT22;45751;51.380;10.326;2023-07-13T06:54:28;16.90;74.90
59881;DHT22;45751;51.380;10.326;2023-07-13T06:56:55;16.90;73.20
59881;DHT22;45751;51.380;10.326;2023-07-13T06:59:22;16.90;73.20
59881;DHT22;45751;51.380;10.326;2023-07-13T07:01:49;17.00;74.20
59881;DHT22;45751;51.380;10.326;2023-07-13T07:04:16;17.00;73.60
59881;DHT22;45751;51.380;10.326;2023-07-13T07:06:43;17.00;73.50
59881;DHT22;45751;51.380;10.326;2023-07-13T07:09:10;17.00;72.40
59881;DHT22;45751;51.380;10.326;2023-07-13T07:11:36;17.00;72.20
59881;DHT22;45751;51.380;10.326;2023-07-13T07:14:10;17.10;72.00
59881;DHT22;45751;51.380;10.326;2023-07-13T07:16:37;16.90;71.50
59881;DHT22;45751;51.380;10.326;2023-07-13T07:19:04;17.10;71.40
59881;DHT22;45751;51.380;10.326;2023-07-13T07:21:30;17.10;71.20
59881;DHT22;45751;51.380;10.326;2023-07-13T07:23:58;17.10;70.50
59881;DHT22;45751;51.380;10.326;2023-07-13T07:26:28;17.10;70.20
59881;DHT22;45751;51.380;10.326;2023-07-13T07:29:15;17.10;70.60
59881;DHT22;45751;51.380;10.326;2023-07-13T07:31:45;17.10;70.50
59881;DHT22;45751;51.380;10.326;2023-07-13T07:34:15;17.10;70.10
59881;DHT22;45751;51.380;10.326;2023-07-13T07:36:41;17.20;69.90
59881;DHT22;45751;51.380;10.326;2023-07-13T07:39:11;17.20;69.90
59881;DHT22;45751;51.380;10.326;2023-07-13T07:41:38;17.20;69.80
59881;DHT22;45751;51.380;10.326;2023-07-13T07:44:08;17.20;69.50
59881;DHT22;45751;51.380;10.326;2023-07-13T07:46:36;17.20;68.90
59881;DHT22;45751;51.380;10.326;2023-07-13T07:49:03;17.30;68.80
59881;DHT22;45751;51.380;10.326;2023-07-13T07:51:30;17.30;69.30
59881;DHT22;45751;51.380;10.326;2023-07-13T07:53:57;17.30;67.90
59881;DHT22;45751;51.380;10.326;2023-07-13T07:56:24;17.40;67.80
59881;DHT22;45751;51.380;10.326;2023-07-13T07:58:54;17.40;67.60
59881;DHT22;45751;51.380;10.326;2023-07-13T08:01:24;17.40;67.00
59881;DHT22;45751;51.380;10.326;2023-07-13T08:03:54;17.40;67.40
59881;DHT22;45751;51.380;10.326;2023-07-13T08:06:24;17.50;66.70
59881;DHT22;45751;51.380;10.326;2023-07-13T08:08:54;17.50;66.60
59881;DHT22;45751;51.380;10.326;2023-07-13T08:11:22;17.50;67.30
59881;DHT22;45751;51.380;10.326;2023-07-13T08:13:52;17.60;66.80
59881;DHT22;45751;51.380;10.326;2023-07-13T08:16:22;17.60;67.40
59881;DHT22;45751;51.380;10.326;2023-07-13T08:18:49;17.70;66.80
59881;DHT22;45751;51.380;10.326;2023-07-13T08:21:16;17.80;65.90
59881;DHT22;45751;51.380;10.326;2023-07-13T08:23:43;17.80;65.80
59881;DHT22;45751;51.380;10.326;2023-07-13T08:26:10;17.90;65.70
59881;DHT22;45751;51.380;10.326;2023-07-13T08:28:37;17.90;65.00
59881;DHT22;45751;51.380;10.326;2023-07-13T08:31:06;18.00;64.60
59881;DHT22;45751;51.380;10.326;2023-07-13T08:33:35;18.00;64.80
59881;DHT22;45751;51.380;10.326;2023-07-13T08:36:02;18.10;65.10
59881;DHT22;45751;51.380;10.326;2023-07-13T08:38:29;18.10;63.30
59881;DHT22;45751;51.380;10.326;2023-07-13T08:40:56;18.20;64.50
59881;DHT22;45751;51.380;10.326;2023-07-13T08:43:34;18.30;64.00
59881;DHT22;45751;51.380;10.326;2023-07-13T08:48:58;18.40;63.10
59881;DHT22;45751;51.380;10.326;2023-07-13T08:54:03;18.50;63.60
59881;DHT22;45751;51.380;10.326;2023-07-13T08:56:32;18.60;62.40
59881;DHT22;45751;51.380;10.326;2023-07-13T08:59:11;18.60;62.70
59881;DHT22;45751;51.380;10.326;2023-07-13T09:04:27;18.70;61.10
59881;DHT22;45751;51.380;10.326;2023-07-13T09:09:56;18.70;59.70
59881;DHT22;45751;51.380;10.326;2023-07-13T09:12:35;18.70;57.70
59881;DHT22;45751;51.380;10.326;2023-07-13T09:15:14;18.60;57.70
59881;DHT22;45751;51.380;10.326;2023-07-13T09:17:52;18.60;58.60
59881;DHT22;45751;51.380;10.326;2023-07-13T09:22:56;18.70;58.20
59881;DHT22;45751;51.380;10.326;2023-07-13T09:25:36;18.70;58.90
59881;DHT22;45751;51.380;10.326;2023-07-13T09:28:28;18.70;58.70
59881;DHT22;45751;51.380;10.326;2023-07-13T09:31:08;18.70;57.90
59881;DHT22;45751;51.380;10.326;2023-07-13T09:33:39;18.70;57.00
59881;DHT22;45751;51.380;10.326;2023-07-13T09:36:28;18.80;57.20
59881;DHT22;45751;51.380;10.326;2023-07-13T09:39:35;18.80;57.20
59881;DHT22;45751;51.380;10.326;2023-07-13T09:42:20;18.90;57.70
59881;DHT22;45751;51.380;10.326;2023-07-13T09:44:57;18.90;57.10
59881;DHT22;45751;51.380;10.326;2023-07-13T09:47:27;18.90;56.00
59881;DHT22;45751;51.380;10.326;2023-07-13T09:49:56;18.90;56.90
59881;DHT22;45751;51.380;10.326;2023-07-13T09:52:42;18.90;56.70
59881;DHT22;45751;51.380;10.326;2023-07-13T09:55:25;19.00;56.40
59881;DHT22;45751;51.380;10.326;2023-07-13T09:57:52;19.00;56.80
59881;DHT22;45751;51.380;10.326;2023-07-13T10:00:28;19.10;56.80
59881;DHT22;45751;51.380;10.326;2023-07-13T10:03:14;19.20;56.90
59881;DHT22;45751;51.380;10.326;2023-07-13T10:05:44;19.20;56.40
59881;DHT22;45751;51.380;10.326;2023-07-13T10:08:24;19.30;56.70
59881;DHT22;45751;51.380;10.326;2023-07-13T10:10:57;19.30;54.60
59881;DHT22;45751;51.380;10.326;2023-07-13T10:13:30;19.30;55.70
59881;DHT22;45751;51.380;10.326;2023-07-13T10:15:59;19.40;56.00
59881;DHT22;45751;51.380;10.326;2023-07-13T10:18:27;19.40;54.50
59881;DHT22;45751;51.380;10.326;2023-07-13T10:21:14;19.40;53.50
59881;DHT22;45751;51.380;10.326;2023-07-13T10:23:49;19.40;54.60
59881;DHT22;45751;51.380;10.326;2023-07-13T10:26:20;19.50;55.20
59881;DHT22;45751;51.380;10.326;2023-07-13T10:28:52;19.60;54.20
59881;DHT22;45751;51.380;10.326;2023-07-13T10:31:20;19.60;53.60
59881;DHT22;45751;51.380;10.326;2023-07-13T10:33:48;19.70;52.80
59881;DHT22;45751;51.380;10.326;2023-07-13T10:38:50;19.70;53.80
59881;DHT22;45751;51.380;10.326;2023-07-13T10:41:21;19.70;55.30
59881;DHT22;45751;51.380;10.326;2023-07-13T10:43:52;19.70;53.90
59881;DHT22;45751;51.380;10.326;2023-07-13T10:46:22;19.60;54.10
59881;DHT22;45751;51.380;10.326;2023-07-13T10:48:54;19.60;53.30
59881;DHT22;45751;51.380;10.326;2023-07-13T10:51:22;19.60;53.10
59881;DHT22;45751;51.380;10.326;2023-07-13T10:54:15;19.70;53.80
59881;DHT22;45751;51.380;10.326;2023-07-13T10:56:49;19.70;54.40
59881;DHT22;45751;51.380;10.326;2023-07-13T10:59:25;19.80;54.80
59881;DHT22;45751;51.380;10.326;2023-07-13T11:01:58;19.80;54.20
59881;DHT22;45751;51.380;10.326;2023-07-13T11:04:27;19.90;54.00
59881;DHT22;45751;51.380;10.326;2023-07-13T11:06:59;19.90;53.60
59881;DHT22;45751;51.380;10.326;2023-07-13T11:09:39;19.90;54.10
59881;DHT22;45751;51.380;10.326;2023-07-13T11:15:05;19.90;53.70
59881;DHT22;45751;51.380;10.326;2023-07-13T11:17:36;19.90;53.60
59881;DHT22;45751;51.380;10.326;2023-07-13T11:23:07;19.90;53.50
59881;DHT22;45751;51.380;10.326;2023-07-13T11:25:35;19.90;53.80
59881;DHT22;45751;51.380;10.326;2023-07-13T11:31:00;19.90;53.20
59881;DHT22;45751;51.380;10.326;2023-07-13T11:33:31;20.00;53.20
59881;DHT22;45751;51.380;10.326;2023-07-13T11:36:16;20.00;53.70
59881;DHT22;45751;51.380;10.326;2023-07-13T11:38:55;20.10;51.90
59881;DHT22;45751;51.380;10.326;2023-07-13T11:41:36;20.10;51.90
59881;DHT22;45751;51.380;10.326;2023-07-13T11:44:14;20.20;50.40
59881;DHT22;45751;51.380;10.326;2023-07-13T11:46:50;20.30;50.20
59881;DHT22;45751;51.380;10.326;2023-07-13T11:49:26;20.40;50.30
59881;DHT22;45751;51.380;10.326;2023-07-13T11:51:59;20.40;50.40
59881;DHT22;45751;51.380;10.326;2023-07-13T11:54:29;20.50;51.10
59881;DHT22;45751;51.380;10.326;2023-07-13T11:57:02;20.50;51.30
59881;DHT22;45751;51.380;10.326;2023-07-13T11:59:40;20.50;50.70
59881;DHT22;45751;51.380;10.326;2023-07-13T12:02:38;20.50;51.10
59881;DHT22;45751;51.380;10.326;2023-07-13T12:05:04;20.50;51.10
59881;DHT22;45751;51.380;10.326;2023-07-13T12:07:32;20.50;51.00
59881;DHT22;45751;51.380;10.326;2023-07-13T12:12:36;20.50;51.90
59881;DHT22;45751;51.380;10.326;2023-07-13T12:15:07;20.60;51.80
59881;DHT22;45751;51.380;10.326;2023-07-13T12:17:35;20.70;50.90
59881;DHT22;45751;51.380;10.326;2023-07-13T12:20:14;20.70;50.40
59881;DHT22;45751;51.380;10.326;2023-07-13T12:22:48;20.80;49.70
59881;DHT22;45751;51.380;10.326;2023-07-13T12:25:15;20.80;50.10
59881;DHT22;45751;51.380;10.326;2023-07-13T12:27:50;20.80;49.70
59881;DHT22;45751;51.380;10.326;2023-07-13T12:30:35;20.90;49.70
59881;DHT22;45751;51.380;10.326;2023-07-13T12:33:12;20.90;49.60
59881;DHT22;45751;51.380;10.326;2023-07-13T12:35:42;21.00;49.20
59881;DHT22;45751;51.380;10.326;2023-07-13T12:38:12;21.00;49.10
59881;DHT22;45751;51.380;10.326;2023-07-13T12:40:39;21.00;48.60
59881;DHT22;45751;51.380;10.326;2023-07-13T12:43:14;21.00;48.80
59881;DHT22;45751;51.380;10.326;2023-07-13T12:46:04;21.00;49.00
59881;DHT22;45751;51.380;10.326;2023-07-13T12:48:38;20.90;48.60
59881;DHT22;45751;51.380;10.326;2023-07-13T12:51:16;21.00;48.50
59881;DHT22;45751;51.380;10.326;2023-07-13T12:53:49;21.00;48.10
59881;DHT22;45751;51.380;10.326;2023-07-13T12:56:23;21.10;48.00
59881;DHT22;45751;51.380;10.326;2023-07-13T12:58:58;21.20;48.20
59881;DHT22;45751;51.380;10.326;2023-07-13T13:01:28;21.30;47.30
59881;DHT22;45751;51.380;10.326;2023-07-13T13:03:56;21.40;46.30
59881;DHT22;45751;51.380;10.326;2023-07-13T13:06:26;21.40;46.90
59881;DHT22;45751;51.380;10.326;2023-07-13T13:08:56;21.40;47.60
59881;DHT22;45751;51.380;10.326;2023-07-13T13:11:24;21.40;46.20
59881;DHT22;45751;51.380;10.326;2023-07-13T13:13:53;21.40;46.60
59881;DHT22;45751;51.380;10.326;2023-07-13T13:18:55;21.40;46.40
59881;DHT22;45751;51.380;10.326;2023-07-13T13:21:24;21.40;46.30
59881;DHT22;45751;51.380;10.326;2023-07-13T13:23:52;21.40;45.80
59881;DHT22;45751;51.380;10.326;2023-07-13T13:26:23;21.30;45.70
59881;DHT22;45751;51.380;10.326;2023-07-13T13:28:50;21.20;46.60
59881;DHT22;45751;51.380;10.326;2023-07-13T13:31:17;21.20;47.00
59881;DHT22;45751;51.380;10.326;2023-07-13T13:33:45;21.10;47.30
59881;DHT22;45751;51.380;10.326;2023-07-13T13:36:18;21.10;47.60
59881;DHT22;45751;51.380;10.326;2023-07-13T13:38:47;21.00;47.90
59881;DHT22;45751;51.380;10.326;2023-07-13T13:41:14;21.00;48.30
59881;DHT22;45751;51.380;10.326;2023-07-13T13:43:42;21.00;48.10
59881;DHT22;45751;51.380;10.326;2023-07-13T13:46:24;21.00;48.00
59881;DHT22;45751;51.380;10.326;2023-07-13T13:48:52;21.00;48.10
59881;DHT22;45751;51.380;10.326;2023-07-13T13:51:20;21.00;48.10
59881;DHT22;45751;51.380;10.326;2023-07-13T13:53:48;21.00;48.00
59881;DHT22;45751;51.380;10.326;2023-07-13T13:56:17;21.00;48.30
59881;DHT22;45751;51.380;10.326;2023-07-13T13:58:44;21.00;48.70
59881;DHT22;45751;51.380;10.326;2023-07-13T14:01:17;21.00;48.90
59881;DHT22;45751;51.380;10.326;2023-07-13T14:03:46;21.10;48.40
59881;DHT22;45751;51.380;10.326;2023-07-13T14:06:15;21.20;47.90
59881;DHT22;45751;51.380;10.326;2023-07-13T14:08:43;21.30;47.00
59881;DHT22;45751;51.380;10.326;2023-07-13T14:11:12;21.30;46.70
59881;DHT22;45751;51.380;10.326;2023-07-13T14:13:43;21.30;45.90
59881;DHT22;45751;51.380;10.326;2023-07-13T14:16:16;21.30;46.20
59881;DHT22;45751;51.380;10.326;2023-07-13T14:18:48;21.30;46.80
59881;DHT22;45751;51.380;10.326;2023-07-13T14:21:17;21.30;46.20
59881;DHT22;45751;51.380;10.326;2023-07-13T14:23:45;21.20;46.80
59881;DHT22;45751;51.380;10.326;2023-07-13T14:26:18;21.20;47.20
59881;DHT22;45751;51.380;10.326;2023-07-13T14:28:51;21.20;47.50
59881;DHT22;45751;51.380;10.326;2023-07-13T14:31:20;21.20;47.60
59881;DHT22;45751;51.380;10.326;2023-07-13T14:33:47;21.20;48.00
59881;DHT22;45751;51.380;10.326;2023-07-13T14:36:23;21.30;47.90
59881;DHT22;45751;51.380;10.326;2023-07-13T14:38:52;21.30;47.20
59881;DHT22;45751;51.380;10.326;2023-07-13T14:41:20;21.40;47.00
59881;DHT22;45751;51.380;10.326;2023-07-13T14:43:48;21.40;47.00
59881;DHT22;45751;51.380;10.326;2023-07-13T14:49:00;21.60;46.00
59881;DHT22;45751;51.380;10.326;2023-07-13T14:51:28;21.60;45.10
59881;DHT22;45751;51.380;10.326;2023-07-13T14:53:55;21.60;46.80
59881;DHT22;45751;51.380;10.326;2023-07-13T14:56:22;21.60;44.90
59881;DHT22;45751;51.380;10.326;2023-07-13T14:58:49;21.70;45.50
59881;DHT22;45751;51.380;10.326;2023-07-13T15:01:16;21.60;45.00
59881;DHT22;45751;51.380;10.326;2023-07-13T15:03:46;21.60;45.10
59881;DHT22;45751;51.380;10.326;2023-07-13T15:06:14;21.60;45.60
59881;DHT22;45751;51.380;10.326;2023-07-13T15:08:41;21.70;46.00
59881;DHT22;45751;51.380;10.326;2023-07-13T15:11:09;21.80;46.30
59881;DHT22;45751;51.380;10.326;2023-07-13T15:13:39;21.90;45.80
59881;DHT22;45751;51.380;10.326;2023-07-13T15:16:15;22.00;44.60
59881;DHT22;45751;51.380;10.326;2023-07-13T15:18:43;22.00;44.50
59881;DHT22;45751;51.380;10.326;2023-07-13T15:21:19;22.00;45.00
59881;DHT22;45751;51.380;10.326;2023-07-13T15:23:46;22.00;45.00
59881;DHT22;45751;51.380;10.326;2023-07-13T15:26:14;22.10;44.40
59881;DHT22;45751;51.380;10.326;2023-07-13T15:28:45;22.10;44.30
59881;DHT22;45751;51.380;10.326;2023-07-13T15:31:22;22.10;44.90
59881;DHT22;45751;51.380;10.326;2023-07-13T15:33:51;22.00;43.40
59881;DHT22;45751;51.380;10.326;2023-07-13T15:36:19;22.00;43.60
59881;DHT22;45751;51.380;10.326;2023-07-13T15:38:48;22.00;44.20
59881;DHT22;45751;51.380;10.326;2023-07-13T15:43:48;22.00;44.60
59881;DHT22;45751;51.380;10.326;2023-07-13T15:46:15;21.90;43.40
59881;DHT22;45751;51.380;10.326;2023-07-13T15:48:42;21.90;44.20
59881;DHT22;45751;51.380;10.326;2023-07-13T15:51:25;21.90;44.50
59881;DHT22;45751;51.380;10.326;2023-07-13T15:53:58;21.80;44.10
59881;DHT22;45751;51.380;10.326;2023-07-13T15:56:27;21.80;44.70
59881;DHT22;45751;51.380;10.326;2023-07-13T15:58:56;21.80;45.40
59881;DHT22;45751;51.380;10.326;2023-07-13T16:01:23;21.80;44.80
59881;DHT22;45751;51.380;10.326;2023-07-13T16:03:51;21.80;44.80
59881;DHT22;45751;51.380;10.326;2023-07-13T16:06:23;21.80;44.80